Time;durP1;ratioP1;P1;durP2;ratioP2;P2;SDS_P1;SDS_P2;PMS_P1;PMS_P2;Temp;Humidity;BMP_temperature;BMP_pressure;BME280_temperature;BME280_humidity;BME280_pressure;Samples;Min_cycle;Max_cycle;Signal;HPM_P1;HPM_P2
2023/10/07 00:00:48;;;;;;;;;;;;;;;;;;5063308;28;19966;-78
2023/10/07 00:03:18;;;;;;;;;;;;;;;;;;5063593;28;19904;-78
2023/10/07 00:05:47;;;;;;;;;;;;;;;;;;5064218;28;20420;-77
2023/10/07 00:08:16;;;;;;;;;;;;;;;;;;5063761;28;19975;-77
2023/10/07 00:10:42;;;;;;;;;;;;;;;;;;5063573;28;19908;-78
2023/10/07 00:13:12;;;;;;;;;;;;;;;;;;5063859;28;19954;-78
2023/10/07 00:15:38;;;;;;;;;;;;;;;;;;5081329;28;19904;-78
2023/10/07 00:18:13;;;;;;;;;;;;;;;;;;5081375;28;20375;-78
2023/10/07 00:20:41;;;;;;;;;;;;;;;;;;5062971;28;19915;-79
2023/10/07 00:23:09;;;;;;;;;;;;;;;;;;5063299;28;19904;-78
2023/10/07 00:25:38;;;;;;;;;;;;;;;;;;5063307;28;19976;-78
2023/10/07 00:28:08;;;;;;;;;;;;;;;;;;5062288;28;19916;-78
2023/10/07 00:30:35;;;;;;;;;;;;;;;;;;5062718;28;19911;-78
2023/10/07 00:33:03;;;;;;;;;;;;;;;;;;5081128;28;19904;-78
2023/10/07 00:35:28;;;;;;;;;;;;;;;;;;5063520;28;20359;-77
2023/10/07 00:37:58;;;;;;;;;;;;;;;;;;5061859;28;20002;-78
2023/10/07 00:40:42;;;;;;;;;;;;;;;;;;5062604;28;19904;-79
2023/10/07 00:43:11;;;;;;;;;;;;;;;;;;5067295;28;19904;-78
2023/10/07 00:45:37;;;;;;;;;;;;;;;;;;5067513;28;19935;-79
2023/10/07 00:48:10;;;;;;;;;;;;;;;;;;5069323;28;19911;-80
2023/10/07 00:50:36;;;;;;;;;;;;;;;;;;5070075;28;19911;-78
2023/10/07 00:53:05;;;;;;;;;;;;;;;;;;5069980;28;19916;-79
2023/10/07 00:55:36;;;;;;;;;;;;;;;;;;5066350;28;19911;-78
2023/10/07 00:58:21;;;;;;;;;;;;;;;;;;5083971;28;19911;-78
2023/10/07 01:00:47;;;;;;;;;;;;;;;;;;5066260;28;19905;-78
2023/10/07 01:05:53;;;;;;;;;;;;;;;;;;5084932;28;19912;-78
2023/10/07 01:08:20;;;;;;;;;;;;;;;;;;5067389;28;19908;-79
2023/10/07 01:10:54;;;;;;;;;;;;;;;;;;5065620;28;19908;-79
2023/10/07 01:13:29;;;;;;;;;;;;;;;;;;5066509;28;19911;-78
2023/10/07 01:15:55;;;;;;;;;;;;;;;;;;5066700;28;19911;-79
2023/10/07 01:18:21;;;;;;;;;;;;;;;;;;5066075;28;19905;-80
2023/10/07 01:23:18;;;;;;;;;;;;;;;;;;5085190;28;20000;-79
2023/10/07 01:25:44;;;;;;;;;;;;;;;;;;5065955;28;19912;-78
2023/10/07 01:28:14;;;;;;;;;;;;;;;;;;5066625;28;19916;-78
2023/10/07 01:30:47;;;;;;;;;;;;;;;;;;5067972;28;19940;-79
2023/10/07 01:36:07;;;;;;;;;;;;;;;;;;5089120;28;19957;-79
2023/10/07 01:38:31;;;;;;;;;;;;;;;;;;5087208;28;19911;-78
2023/10/07 01:41:05;;;;;;;;;;;;;;;;;;5066254;28;19935;-78
2023/10/07 01:43:31;;;;;;;;;;;;;;;;;;5066860;28;20382;-79
2023/10/07 01:45:57;;;;;;;;;;;;;;;;;;5065572;28;19979;-79
2023/10/07 01:48:24;;;;;;;;;;;;;;;;;;5066138;28;19911;-78
2023/10/07 01:50:51;;;;;;;;;;;;;;;;;;5066230;28;20007;-78
2023/10/07 01:53:18;;;;;;;;;;;;;;;;;;5065566;28;19912;-79
2023/10/07 01:55:45;;;;;;;;;;;;;;;;;;5066944;28;19911;-80
2023/10/07 01:58:13;;;;;;;;;;;;;;;;;;5066678;28;19904;-78
2023/10/07 02:00:44;;;;;;;;;;;;;;;;;;5066319;28;19908;-79
2023/10/07 02:03:13;;;;;;;;;;;;;;;;;;5066629;28;19926;-79
2023/10/07 02:05:40;;;;;;;;;;;;;;;;;;5066476;28;19916;-78
2023/10/07 02:08:11;;;;;;;;;;;;;;;;;;5083476;28;19911;-79
2023/10/07 02:10:37;;;;;;;;;;;;;;;;;;5065928;28;19908;-79
2023/10/07 02:13:03;;;;;;;;;;;;;;;;;;5065927;28;19904;-78
2023/10/07 02:15:30;;;;;;;;;;;;;;;;;;5065975;28;19936;-78
2023/10/07 02:17:56;;;;;;;;;;;;;;;;;;5066174;28;19912;-78
2023/10/07 02:20:27;;;;;;;;;;;;;;;;;;5065672;28;19904;-79
2023/10/07 02:22:53;;;;;;;;;;;;;;;;;;5084087;28;19905;-78
2023/10/07 02:25:27;;;;;;;;;;;;;;;;;;5066396;28;19916;-78
2023/10/07 02:27:54;;;;;;;;;;;;;;;;;;5083333;28;19916;-78
2023/10/07 02:30:20;;;;;;;;;;;;;;;;;;5065697;28;19994;-78
2023/10/07 02:32:49;;;;;;;;;;;;;;;;;;5066006;28;20296;-79
2023/10/07 02:35:19;;;;;;;;;;;;;;;;;;5065051;28;19904;-78
2023/10/07 02:37:49;;;;;;;;;;;;;;;;;;5065413;28;19904;-77
2023/10/07 02:40:35;;;;;;;;;;;;;;;;;;5065774;28;19904;-77
2023/10/07 02:43:07;;;;;;;;;;;;;;;;;;5065143;28;19904;-77
2023/10/07 02:45:39;;;;;;;;;;;;;;;;;;5064785;28;19991;-78
2023/10/07 02:48:10;;;;;;;;;;;;;;;;;;5082725;28;19911;-78
2023/10/07 02:50:39;;;;;;;;;;;;;;;;;;5065410;28;19912;-77
2023/10/07 02:53:11;;;;;;;;;;;;;;;;;;5064569;28;19904;-77
2023/10/07 02:55:58;;;;;;;;;;;;;;;;;;5064416;28;19904;-78
2023/10/07 02:58:32;;;;;;;;;;;;;;;;;;5064433;28;19905;-79
2023/10/07 03:01:10;;;;;;;;;;;;;;;;;;5065250;28;19911;-77
2023/10/07 03:03:38;;;;;;;;;;;;;;;;;;5065583;28;19912;-78
2023/10/07 03:06:07;;;;;;;;;;;;;;;;;;5065690;28;19913;-78
2023/10/07 03:13:46;;;;;;;;;;;;;;;;;;5083571;28;19904;-78
2023/10/07 03:24:10;;;;;;;;;;;;;;;;;;5084933;28;19950;-80
2023/10/07 03:26:37;;;;;;;;;;;;;;;;;;5066068;28;20000;-79
2023/10/07 03:29:06;;;;;;;;;;;;;;;;;;5067588;28;19934;-81
2023/10/07 03:34:08;;;;;;;;;;;;;;;;;;5083634;28;19905;-78
2023/10/07 03:36:41;;;;;;;;;;;;;;;;;;5063388;28;20322;-78
2023/10/07 03:39:22;;;;;;;;;;;;;;;;;;5063004;28;19904;-79
2023/10/07 03:41:48;;;;;;;;;;;;;;;;;;5081111;28;19987;-78
2023/10/07 03:44:14;;;;;;;;;;;;;;;;;;5063305;28;20009;-78
2023/10/07 03:46:40;;;;;;;;;;;;;;;;;;5063534;28;19915;-78
2023/10/07 03:49:07;;;;;;;;;;;;;;;;;;5063009;28;19958;-78
2023/10/07 03:51:33;;;;;;;;;;;;;;;;;;5062913;28;19911;-79
2023/10/07 03:54:15;;;;;;;;;;;;;;;;;;5063076;28;19947;-78
2023/10/07 03:56:41;;;;;;;;;;;;;;;;;;5063685;28;19951;-78
2023/10/07 03:59:07;;;;;;;;;;;;;;;;;;5062852;28;19904;-78
2023/10/07 04:01:33;;;;;;;;;;;;;;;;;;5062684;28;19904;-78
2023/10/07 04:03:59;;;;;;;;;;;;;;;;;;5064015;28;19908;-78
2023/10/07 04:06:30;;;;;;;;;;;;;;;;;;5081357;28;19908;-79
2023/10/07 04:08:58;;;;;;;;;;;;;;;;;;5063533;28;19908;-79
2023/10/07 04:11:28;;;;;;;;;;;;;;;;;;5063647;28;19904;-77
2023/10/07 04:13:55;;;;;;;;;;;;;;;;;;5063297;28;20367;-78
2023/10/07 04:16:24;;;;;;;;;;;;;;;;;;5066002;28;19905;-79
2023/10/07 04:18:50;;;;;;;;;;;;;;;;;;5067852;28;19904;-79
2023/10/07 04:21:16;;;;;;;;;;;;;;;;;;5066998;28;20241;-78
2023/10/07 04:23:45;;;;;;;;;;;;;;;;;;5067352;28;19911;-78
2023/10/07 04:26:19;;;;;;;;;;;;;;;;;;5085303;28;19908;-77
2023/10/07 04:28:48;;;;;;;;;;;;;;;;;;5066591;28;19916;-78
2023/10/07 04:31:15;;;;;;;;;;;;;;;;;;5067493;28;20330;-79
2023/10/07 04:33:46;;;;;;;;;;;;;;;;;;5068004;28;20374;-79
2023/10/07 04:36:14;;;;;;;;;;;;;;;;;;5067308;28;19904;-78
2023/10/07 04:38:56;;;;;;;;;;;;;;;;;;5067113;28;19944;-78
2023/10/07 04:43:59;;;;;;;;;;;;;;;;;;5084174;28;20022;-78
2023/10/07 04:46:28;;;;;;;;;;;;;;;;;;5066118;28;19908;-79
2023/10/07 04:49:12;;;;;;;;;;;;;;;;;;5065545;28;19909;-79
2023/10/07 04:54:07;;;;;;;;;;;;;;;;;;5084279;28;19951;-78
2023/10/07 04:56:35;;;;;;;;;;;;;;;;;;5065522;28;19904;-77
2023/10/07 04:59:05;;;;;;;;;;;;;;;;;;5066682;28;19911;-79
2023/10/07 05:01:31;;;;;;;;;;;;;;;;;;5065899;28;19995;-78
2023/10/07 05:03:58;;;;;;;;;;;;;;;;;;5066393;28;20370;-78
2023/10/07 05:06:24;;;;;;;;;;;;;;;;;;5065952;28;19908;-78
2023/10/07 05:08:50;;;;;;;;;;;;;;;;;;5083787;28;19912;-78
2023/10/07 05:11:17;;;;;;;;;;;;;;;;;;5065677;28;19904;-78
2023/10/07 05:13:44;;;;;;;;;;;;;;;;;;5064975;28;19943;-78
2023/10/07 05:16:10;;;;;;;;;;;;;;;;;;5065173;28;19927;-78
2023/10/07 05:18:38;;;;;;;;;;;;;;;;;;5065034;28;19904;-78
2023/10/07 05:21:07;;;;;;;;;;;;;;;;;;5065885;28;19904;-77
2023/10/07 05:23:33;;;;;;;;;;;;;;;;;;5065796;28;20330;-78
2023/10/07 05:26:09;;;;;;;;;;;;;;;;;;5065993;28;19912;-78
2023/10/07 05:28:35;;;;;;;;;;;;;;;;;;5066465;28;19978;-77
2023/10/07 05:31:03;;;;;;;;;;;;;;;;;;5065138;28;19926;-78
2023/10/07 05:33:32;;;;;;;;;;;;;;;;;;5066258;28;20360;-78
2023/10/07 05:35:58;;;;;;;;;;;;;;;;;;5069676;28;19905;-78
2023/10/07 05:38:25;;;;;;;;;;;;;;;;;;5069784;28;19908;-79
2023/10/07 05:40:50;;;;;;;;;;;;;;;;;;5070433;28;20264;-79
2023/10/07 05:43:16;;;;;;;;;;;;;;;;;;5070126;28;19905;-79
2023/10/07 05:45:42;;;;;;;;;;;;;;;;;;5069213;28;19917;-79
2023/10/07 05:48:10;;;;;;;;;;;;;;;;;;5067457;28;19911;-79
2023/10/07 05:50:36;;;;;;;;;;;;;;;;;;5064403;28;19905;-79
2023/10/07 05:53:05;;;;;;;;;;;;;;;;;;5065398;28;19911;-78
2023/10/07 05:55:31;;;;;;;;;;;;;;;;;;5065291;28;19974;-78
2023/10/07 05:57:58;;;;;;;;;;;;;;;;;;5064487;28;20019;-78
2023/10/07 06:00:25;;;;;;;;;;;;;;;;;;5065291;28;20371;-79
2023/10/07 06:02:55;;;;;;;;;;;;;;;;;;5064773;28;19911;-78
2023/10/07 06:05:27;;;;;;;;;;;;;;;;;;5063824;28;19978;-77
2023/10/07 06:07:53;;;;;;;;;;;;;;;;;;5065294;28;20242;-79
2023/10/07 06:10:19;;;;;;;;;;;;;;;;;;5064671;28;19943;-79
2023/10/07 06:12:45;;;;;;;;;;;;;;;;;;5063900;28;19904;-78
2023/10/07 06:15:12;;;;;;;;;;;;;;;;;;5081823;28;20259;-78
2023/10/07 06:17:38;;;;;;;;;;;;;;;;;;5063503;28;19904;-79
2023/10/07 06:20:14;;;;;;;;;;;;;;;;;;5063937;28;20062;-79
2023/10/07 06:22:45;;;;;;;;;;;;;;;;;;5064219;28;19904;-79
2023/10/07 06:25:12;;;;;;;;;;;;;;;;;;5064051;28;19954;-78
2023/10/07 06:27:40;;;;;;;;;;;;;;;;;;5063155;28;19974;-79
2023/10/07 06:30:09;;;;;;;;;;;;;;;;;;5064119;28;19910;-79
2023/10/07 06:32:44;;;;;;;;;;;;;;;;;;5063076;28;20344;-78
2023/10/07 06:35:14;;;;;;;;;;;;;;;;;;5081272;28;19905;-78
2023/10/07 06:37:40;;;;;;;;;;;;;;;;;;5064054;28;19908;-77
2023/10/07 06:40:21;;;;;;;;;;;;;;;;;;5062902;28;19904;-78
2023/10/07 06:42:47;;;;;;;;;;;;;;;;;;5063950;28;19908;-78
2023/10/07 06:45:17;;;;;;;;;;;;;;;;;;5063318;28;20251;-77
2023/10/07 06:47:43;;;;;;;;;;;;;;;;;;5062916;28;20412;-79
2023/10/07 06:50:17;;;;;;;;;;;;;;;;;;5062806;28;19935;-78
2023/10/07 06:52:44;;;;;;;;;;;;;;;;;;5063000;28;19971;-79
2023/10/07 06:55:10;;;;;;;;;;;;;;;;;;5062927;28;19908;-78
2023/10/07 06:57:36;;;;;;;;;;;;;;;;;;5062981;28;19949;-78
2023/10/07 07:00:09;;;;;;;;;;;;;;;;;;5064132;28;19975;-79
2023/10/07 07:02:35;;;;;;;;;;;;;;;;;;5064213;28;20038;-79
2023/10/07 07:05:02;;;;;;;;;;;;;;;;;;5064619;28;19904;-80
2023/10/07 07:07:28;;;;;;;;;;;;;;;;;;5063851;28;19938;-79
2023/10/07 07:09:58;;;;;;;;;;;;;;;;;;5063255;28;19908;-79
2023/10/07 07:12:26;;;;;;;;;;;;;;;;;;5064769;28;19963;-78
2023/10/07 07:14:56;;;;;;;;;;;;;;;;;;5063702;28;19904;-79
2023/10/07 07:22:35;;;;;;;;;;;;;;;;;;5080442;28;19911;-80
2023/10/07 07:25:05;;;;;;;;;;;;;;;;;;5063329;28;19905;-79
2023/10/07 07:27:35;;;;;;;;;;;;;;;;;;5063797;28;20330;-78
2023/10/07 07:30:04;;;;;;;;;;;;;;;;;;5063740;28;19911;-79
2023/10/07 07:32:35;;;;;;;;;;;;;;;;;;5064634;28;19904;-78
2023/10/07 07:35:03;;;;;;;;;;;;;;;;;;5062156;28;19911;-78
2023/10/07 07:37:31;;;;;;;;;;;;;;;;;;5063180;28;20340;-78
2023/10/07 07:39:59;;;;;;;;;;;;;;;;;;5062659;28;19904;-78
2023/10/07 07:42:27;;;;;;;;;;;;;;;;;;5062493;28;20348;-78
2023/10/07 07:45:01;;;;;;;;;;;;;;;;;;5065713;28;19912;-79
2023/10/07 07:47:31;;;;;;;;;;;;;;;;;;5066312;28;19940;-79
2023/10/07 07:49:57;;;;;;;;;;;;;;;;;;5066575;28;19939;-79
2023/10/07 07:52:23;;;;;;;;;;;;;;;;;;5067768;28;20395;-79
2023/10/07 07:54:49;;;;;;;;;;;;;;;;;;5067524;28;19909;-78
2023/10/07 07:57:16;;;;;;;;;;;;;;;;;;5068157;28;19911;-79
2023/10/07 07:59:43;;;;;;;;;;;;;;;;;;5068126;28;19905;-79
2023/10/07 08:02:12;;;;;;;;;;;;;;;;;;5068797;28;19908;-79
2023/10/07 08:04:39;;;;;;;;;;;;;;;;;;5068012;28;19904;-79
2023/10/07 08:07:11;;;;;;;;;;;;;;;;;;5068065;28;19909;-79
2023/10/07 08:09:42;;;;;;;;;;;;;;;;;;5074385;28;19912;-78
2023/10/07 08:12:09;;;;;;;;;;;;;;;;;;5087573;28;19954;-77
2023/10/07 08:14:35;;;;;;;;;;;;;;;;;;5086726;28;19908;-78
2023/10/07 08:17:03;;;;;;;;;;;;;;;;;;5087843;28;19931;-79
2023/10/07 08:19:32;;;;;;;;;;;;;;;;;;5089795;28;19912;-80
2023/10/07 08:22:02;;;;;;;;;;;;;;;;;;5088037;28;19950;-80
2023/10/07 08:24:31;;;;;;;;;;;;;;;;;;5086535;28;20351;-79
2023/10/07 08:27:03;;;;;;;;;;;;;;;;;;5085154;28;19920;-80
2023/10/07 08:29:32;;;;;;;;;;;;;;;;;;5078471;28;19915;-81
2023/10/07 08:31:58;;;;;;;;;;;;;;;;;;5084355;28;19915;-79
2023/10/07 08:34:31;;;;;;;;;;;;;;;;;;5083611;28;20274;-80
2023/10/07 08:37:00;;;;;;;;;;;;;;;;;;5084293;28;19908;-80
2023/10/07 08:39:28;;;;;;;;;;;;;;;;;;5080914;28;19979;-80
2023/10/07 08:41:58;;;;;;;;;;;;;;;;;;5080987;28;20386;-78
2023/10/07 08:44:32;;;;;;;;;;;;;;;;;;5080309;28;19911;-80
2023/10/07 08:47:05;;;;;;;;;;;;;;;;;;5079874;28;19919;-81
2023/10/07 08:49:33;;;;;;;;;;;;;;;;;;5080489;28;20348;-78
2023/10/07 08:51:59;;;;;;;;;;;;;;;;;;5080973;28;20296;-79
2023/10/07 08:54:31;;;;;;;;;;;;;;;;;;5079468;28;19911;-78
2023/10/07 08:56:57;;;;;;;;;;;;;;;;;;5084400;28;19964;-78
2023/10/07 08:59:25;;;;;;;;;;;;;;;;;;5084551;28;19904;-78
2023/10/07 09:01:57;;;;;;;;;;;;;;;;;;5085397;28;19904;-79
2023/10/07 09:04:23;;;;;;;;;;;;;;;;;;5089378;28;19932;-79
2023/10/07 09:06:52;;;;;;;;;;;;;;;;;;5088888;28;19916;-78
2023/10/07 09:09:24;;;;;;;;;;;;;;;;;;5088966;28;19904;-79
2023/10/07 09:11:51;;;;;;;;;;;;;;;;;;5088750;28;19930;-78
2023/10/07 09:14:18;;;;;;;;;;;;;;;;;;5087300;28;19904;-80
2023/10/07 09:16:46;;;;;;;;;;;;;;;;;;5089007;28;19939;-79
2023/10/07 09:19:15;;;;;;;;;;;;;;;;;;5089754;28;19904;-78
2023/10/07 09:21:45;;;;;;;;;;;;;;;;;;5089484;28;19911;-79
2023/10/07 09:24:20;;;;;;;;;;;;;;;;;;5088263;28;20279;-78
2023/10/07 09:26:46;;;;;;;;;;;;;;;;;;5088280;28;19920;-80
2023/10/07 09:29:15;;;;;;;;;;;;;;;;;;5089345;28;19913;-80
2023/10/07 09:31:42;;;;;;;;;;;;;;;;;;5088173;28;19904;-80
2023/10/07 09:34:11;;;;;;;;;;;;;;;;;;5088773;28;19911;-80
2023/10/07 09:36:40;;;;;;;;;;;;;;;;;;5090484;28;19947;-78
2023/10/07 09:41:38;;;;;;;;;;;;;;;;;;5089742;28;19911;-80
2023/10/07 09:44:10;;;;;;;;;;;;;;;;;;5089949;28;19905;-79
2023/10/07 09:46:40;;;;;;;;;;;;;;;;;;5091031;28;19912;-80
2023/10/07 09:49:06;;;;;;;;;;;;;;;;;;5091164;28;19944;-80
2023/10/07 09:51:47;;;;;;;;;;;;;;;;;;5091930;28;19950;-80
2023/10/07 09:54:16;;;;;;;;;;;;;;;;;;5091742;28;19912;-80
2023/10/07 09:56:43;;;;;;;;;;;;;;;;;;5091686;28;19968;-80
2023/10/07 09:59:16;;;;;;;;;;;;;;;;;;5090943;28;19908;-80
2023/10/07 10:01:44;;;;;;;;;;;;;;;;;;5089964;28;19904;-82
2023/10/07 10:04:11;;;;;;;;;;;;;;;;;;5092217;28;19957;-82
2023/10/07 10:06:39;;;;;;;;;;;;;;;;;;5095550;28;19896;-81
2023/10/07 10:09:14;;;;;;;;;;;;;;;;;;5090646;28;19905;-81
2023/10/07 10:16:44;;;;;;;;;;;;;;;;;;5089156;28;19958;-80
2023/10/07 10:19:22;;;;;;;;;;;;;;;;;;5087869;28;19909;-80
2023/10/07 10:21:48;;;;;;;;;;;;;;;;;;5088049;28;19912;-80
2023/10/07 10:24:15;;;;;;;;;;;;;;;;;;5089785;28;19904;-80
2023/10/07 10:26:41;;;;;;;;;;;;;;;;;;5092448;28;19942;-81
2023/10/07 10:29:15;;;;;;;;;;;;;;;;;;5092825;28;19912;-79
2023/10/07 10:31:43;;;;;;;;;;;;;;;;;;5090261;28;19911;-79
2023/10/07 10:34:14;;;;;;;;;;;;;;;;;;5086286;28;19999;-79
2023/10/07 10:36:43;;;;;;;;;;;;;;;;;;5067226;28;19909;-79
2023/10/07 10:39:09;;;;;;;;;;;;;;;;;;5056456;28;19909;-80
2023/10/07 10:41:39;;;;;;;;;;;;;;;;;;5081030;28;19922;-79
2023/10/07 10:44:06;;;;;;;;;;;;;;;;;;5089742;28;19904;-80
2023/10/07 10:46:33;;;;;;;;;;;;;;;;;;5086074;28;19919;-79
2023/10/07 10:49:01;;;;;;;;;;;;;;;;;;5089590;28;19912;-80
2023/10/07 10:51:27;;;;;;;;;;;;;;;;;;5088528;28;19908;-80
2023/10/07 10:53:55;;;;;;;;;;;;;;;;;;5086888;28;19904;-79
2023/10/07 10:56:21;;;;;;;;;;;;;;;;;;5087283;28;19910;-80
2023/10/07 10:58:47;;;;;;;;;;;;;;;;;;5090103;28;20244;-81
2023/10/07 11:01:13;;;;;;;;;;;;;;;;;;5090399;28;19904;-80
2023/10/07 11:03:39;;;;;;;;;;;;;;;;;;5090641;28;19911;-81
2023/10/07 11:06:10;;;;;;;;;;;;;;;;;;5090499;28;19908;-81
2023/10/07 11:08:36;;;;;;;;;;;;;;;;;;5090234;28;19904;-80
2023/10/07 11:11:06;;;;;;;;;;;;;;;;;;5090907;28;19904;-79
2023/10/07 11:13:34;;;;;;;;;;;;;;;;;;5090979;28;19904;-80
2023/10/07 11:16:09;;;;;;;;;;;;;;;;;;5110841;28;19931;-80
2023/10/07 11:18:37;;;;;;;;;;;;;;;;;;5091617;28;20359;-81
2023/10/07 11:21:05;;;;;;;;;;;;;;;;;;5094318;28;19911;-81
2023/10/07 11:23:34;;;;;;;;;;;;;;;;;;5095914;28;19904;-81
2023/10/07 11:26:03;;;;;;;;;;;;;;;;;;5091721;28;19982;-84
2023/10/07 11:28:29;;;;;;;;;;;;;;;;;;5093120;28;19916;-81
2023/10/07 11:30:55;;;;;;;;;;;;;;;;;;5093723;28;19911;-83
2023/10/07 11:49:52;;;;;;;;;;;;;;;;;;5107277;28;19911;-84
2023/10/07 11:52:19;;;;;;;;;;;;;;;;;;5065534;28;20268;-81
2023/10/07 11:57:30;;;;;;;;;;;;;;;;;;5061734;28;19927;-80
2023/10/07 11:59:58;;;;;;;;;;;;;;;;;;5045638;28;19905;-81
2023/10/07 12:02:40;;;;;;;;;;;;;;;;;;5053764;28;20323;-87
2023/10/07 12:05:43;;;;;;;;;;;;;;;;;;5072470;28;19912;-86
2023/10/07 12:24:58;;;;;;;;;;;;;;;;;;5047143;28;19912;-85
2023/10/07 12:36:18;;;;;;;;;;;;;;;;;;5012270;28;19920;-83
2023/10/07 12:39:01;;;;;;;;;;;;;;;;;;5017380;28;19937;-82
2023/10/07 12:41:56;;;;;;;;;;;;;;;;;;4994430;28;19906;-83
2023/10/07 12:53:10;;;;;;;;;;;;;;;;;;4979299;29;19897;-80
2023/10/07 12:56:01;;;;;;;;;;;;;;;;;;4940279;29;19914;-82
2023/10/07 12:58:28;;;;;;;;;;;;;;;;;;4917634;29;19942;-81
2023/10/07 13:03:59;;;;;;;;;;;;;;;;;;4921851;29;19922;-84
2023/10/07 13:15:00;;;;;;;;;;;;;;;;;;4921450;29;19914;-82
2023/10/07 13:17:54;;;;;;;;;;;;;;;;;;4936554;29;19907;-84
2023/10/07 13:20:44;;;;;;;;;;;;;;;;;;4917148;29;19918;-81
2023/10/07 13:23:28;;;;;;;;;;;;;;;;;;4919712;29;19911;-81
2023/10/07 13:37:06;;;;;;;;;;;;;;;;;;4916627;29;20059;-80
2023/10/07 13:39:54;;;;;;;;;;;;;;;;;;4955931;29;19917;-82
2023/10/07 13:45:23;;;;;;;;;;;;;;;;;;4941795;29;19931;-82
2023/10/07 13:48:18;;;;;;;;;;;;;;;;;;4939503;28;19947;-81
2023/10/07 13:51:06;;;;;;;;;;;;;;;;;;4944674;29;19947;-81
2023/10/07 13:56:23;;;;;;;;;;;;;;;;;;4974610;28;19930;-81
2023/10/07 13:58:50;;;;;;;;;;;;;;;;;;4955983;29;19914;-81
2023/10/07 14:01:16;;;;;;;;;;;;;;;;;;4954818;29;19907;-81
2023/10/07 14:03:45;;;;;;;;;;;;;;;;;;4953179;29;19907;-82
2023/10/07 14:06:12;;;;;;;;;;;;;;;;;;4955969;29;19911;-83
2023/10/07 14:14:16;;;;;;;;;;;;;;;;;;4975058;29;19913;-86
2023/10/07 14:19:46;;;;;;;;;;;;;;;;;;5008752;28;19916;-86
2023/10/07 14:27:56;;;;;;;;;;;;;;;;;;5033711;28;19919;-83
2023/10/07 14:30:47;;;;;;;;;;;;;;;;;;5031155;28;19906;-82
2023/10/07 14:33:14;;;;;;;;;;;;;;;;;;5007596;28;19905;-81
2023/10/07 14:35:40;;;;;;;;;;;;;;;;;;5009304;28;19910;-82
2023/10/07 14:38:09;;;;;;;;;;;;;;;;;;4987383;28;19913;-80
2023/10/07 14:40:36;;;;;;;;;;;;;;;;;;4987993;28;19941;-80
2023/10/07 14:43:04;;;;;;;;;;;;;;;;;;4986206;28;19909;-81
2023/10/07 14:45:35;;;;;;;;;;;;;;;;;;4975850;28;19910;-82
2023/10/07 14:48:02;;;;;;;;;;;;;;;;;;5023927;28;19960;-82
2023/10/07 14:50:30;;;;;;;;;;;;;;;;;;5015703;28;19935;-82
2023/10/07 14:52:57;;;;;;;;;;;;;;;;;;5048346;28;19905;-81
2023/10/07 14:55:23;;;;;;;;;;;;;;;;;;5048770;28;19905;-81
2023/10/07 14:58:01;;;;;;;;;;;;;;;;;;5051085;28;19916;-82
2023/10/07 15:03:12;;;;;;;;;;;;;;;;;;5052372;28;19997;-82
2023/10/07 15:05:38;;;;;;;;;;;;;;;;;;5054207;28;19904;-81
2023/10/07 15:08:20;;;;;;;;;;;;;;;;;;5056781;28;19960;-83
2023/10/07 15:10:54;;;;;;;;;;;;;;;;;;5032257;28;19964;-83
2023/10/07 15:13:39;;;;;;;;;;;;;;;;;;5016146;28;19906;-81
2023/10/07 15:18:53;;;;;;;;;;;;;;;;;;5068878;28;19911;-81
2023/10/07 15:21:43;;;;;;;;;;;;;;;;;;5026647;28;19928;-84
2023/10/07 15:24:10;;;;;;;;;;;;;;;;;;5027092;28;19981;-82
2023/10/07 15:26:37;;;;;;;;;;;;;;;;;;5025744;28;20273;-81
2023/10/07 15:29:08;;;;;;;;;;;;;;;;;;5027469;28;19906;-82
2023/10/07 15:31:33;;;;;;;;;;;;;;;;;;5026236;28;19906;-82
2023/10/07 15:34:07;;;;;;;;;;;;;;;;;;5025050;28;19917;-82
2023/10/07 15:36:35;;;;;;;;;;;;;;;;;;5027072;28;20316;-81
2023/10/07 15:39:04;;;;;;;;;;;;;;;;;;5027112;28;19905;-80
2023/10/07 15:41:30;;;;;;;;;;;;;;;;;;5027687;28;19993;-81
2023/10/07 15:43:56;;;;;;;;;;;;;;;;;;5026858;28;19905;-81
2023/10/07 15:46:23;;;;;;;;;;;;;;;;;;5027586;28;19913;-80
2023/10/07 15:48:49;;;;;;;;;;;;;;;;;;5058523;28;19909;-80
2023/10/07 15:51:15;;;;;;;;;;;;;;;;;;5050742;28;19911;-82
2023/10/07 15:53:41;;;;;;;;;;;;;;;;;;5111024;28;19911;-81
2023/10/07 15:56:09;;;;;;;;;;;;;;;;;;5091652;28;19904;-81
2023/10/07 15:58:37;;;;;;;;;;;;;;;;;;5089439;28;19936;-80
2023/10/07 16:01:04;;;;;;;;;;;;;;;;;;5072017;28;19904;-81
2023/10/07 16:03:32;;;;;;;;;;;;;;;;;;5090213;28;19944;-80
2023/10/07 16:05:58;;;;;;;;;;;;;;;;;;5066669;28;20015;-80
2023/10/07 16:08:25;;;;;;;;;;;;;;;;;;5064028;28;19915;-78
2023/10/07 16:10:52;;;;;;;;;;;;;;;;;;5053397;28;19958;-81
2023/10/07 16:13:18;;;;;;;;;;;;;;;;;;5054704;28;19908;-79
2023/10/07 16:15:44;;;;;;;;;;;;;;;;;;5063791;28;19983;-78
2023/10/07 16:18:11;;;;;;;;;;;;;;;;;;5060798;28;19916;-82
2023/10/07 16:20:37;;;;;;;;;;;;;;;;;;5060052;28;19909;-79
2023/10/07 16:23:04;;;;;;;;;;;;;;;;;;5058237;28;19916;-81
2023/10/07 16:25:31;;;;;;;;;;;;;;;;;;5053806;28;19915;-79
2023/10/07 16:27:58;;;;;;;;;;;;;;;;;;5070295;28;19920;-82
2023/10/07 16:30:25;;;;;;;;;;;;;;;;;;5064764;28;19915;-79
2023/10/07 16:32:51;;;;;;;;;;;;;;;;;;5066526;28;19908;-79
2023/10/07 16:35:22;;;;;;;;;;;;;;;;;;5072245;28;19912;-81
2023/10/07 16:37:50;;;;;;;;;;;;;;;;;;5086697;28;19920;-79
2023/10/07 16:40:18;;;;;;;;;;;;;;;;;;5067442;28;19908;-79
2023/10/07 16:43:43;;;;;;;0.40;0.40;;;;;;;;;;4949787;27;4213479;-79
2023/10/07 16:46:09;;;;;;;0.40;0.40;;;;;;;;;;5090603;28;20093;-80
2023/10/07 16:48:39;;;;;;;0.40;0.40;;;;;;;;;;5090870;28;20431;-81
2023/10/07 16:51:05;;;;;;;0.40;0.40;;;;;;;;;;5090856;28;20054;-80
2023/10/07 16:53:34;;;;;;;0.57;0.57;;;;;;;;;;5089716;28;20472;-78
2023/10/07 16:56:01;;;;;;;0.40;0.40;;;;;;;;;;5091114;28;20028;-79
2023/10/07 16:58:27;;;;;;;0.40;0.40;;;;;;;;;;5090040;28;20052;-82
2023/10/07 17:00:55;;;;;;;0.50;0.50;;;;;;;;;;5090095;28;20021;-78
2023/10/07 17:03:22;;;;;;;0.40;0.40;;;;;;;;;;5092213;28;20086;-79
2023/10/07 17:05:51;;;;;;;0.43;0.43;;;;;;;;;;5093308;28;20027;-79
2023/10/07 17:08:17;;;;;;;0.40;0.40;;;;;;;;;;5095945;28;20028;-79
2023/10/07 17:10:44;;;;;;;0.50;0.50;;;;;;;;;;5098668;28;20032;-80
2023/10/07 17:13:11;;;;;;;0.50;0.50;;;;;;;;;;5099162;28;20119;-79
2023/10/07 17:15:38;;;;;;;0.40;0.40;;;;;;;;;;5103255;28;20024;-79
2023/10/07 17:18:05;;;;;;;0.40;0.40;;;;;;;;;;5100171;28;20024;-79
2023/10/07 17:20:36;;;;;;;0.50;0.50;;;;;;;;;;5100931;28;20074;-81
2023/10/07 17:23:03;;;;;;;0.50;0.50;;;;;;;;;;5103950;28;20038;-80
2023/10/07 17:25:35;;;;;;;0.50;0.50;;;;;;;;;;5108310;28;20025;-81
2023/10/07 17:28:07;;;;;;;0.60;0.60;;;;;;;;;;5108687;28;20043;-81
2023/10/07 17:30:34;;;;;;;0.45;0.45;;;;;;;;;;5105778;28;20039;-81
2023/10/07 17:33:02;;;;;;;0.50;0.50;;;;;;;;;;5089653;28;20016;-82
2023/10/07 17:35:29;;;;;;;0.50;0.50;;;;;;;;;;5072245;28;20032;-82
2023/10/07 17:37:56;;;;;;;0.50;0.50;;;;;;;;;;5091980;28;20058;-82
2023/10/07 17:40:23;;;;;;;0.50;0.50;;;;;;;;;;5086807;28;20072;-81
2023/10/07 17:42:51;;;;;;;0.50;0.50;;;;;;;;;;5068621;28;20045;-81
2023/10/07 17:45:18;;;;;;;0.50;0.50;;;;;;;;;;5067276;28;20044;-81
2023/10/07 17:47:47;;;;;;;0.50;0.50;;;;;;;;;;5067050;28;20087;-82
2023/10/07 17:50:15;;;;;;;0.50;0.50;;;;;;;;;;5064875;28;20033;-82
2023/10/07 17:52:42;;;;;;;0.50;0.50;;;;;;;;;;5063867;28;20516;-82
2023/10/07 17:55:09;;;;;;;0.50;0.50;;;;;;;;;;5034090;28;20116;-84
2023/10/07 17:57:37;;;;;;;0.43;0.43;;;;;;;;;;5052284;28;20049;-85
2023/10/07 18:00:09;;;;;;;0.50;0.50;;;;;;;;;;5050413;28;20037;-82
2023/10/07 18:02:37;;;;;;;;;;;;;;;;;;5051937;28;20033;-81
2023/10/07 18:05:04;;;;;;;0.85;0.85;;;;;;;;;;5055269;28;19904;-83
2023/10/07 18:07:31;;;;;;;0.40;0.40;;;;;;;;;;5056434;28;20017;-83
2023/10/07 18:09:57;;;;;;;0.50;0.50;;;;;;;;;;5057630;28;20011;-84
2023/10/07 18:12:25;;;;;;;0.50;0.50;;;;;;;;;;5086453;28;20100;-83
2023/10/07 18:14:52;;;;;;;1.15;1.13;;;;;;;;;;5089918;28;20021;-83
2023/10/07 18:17:18;;;;;;;0.50;0.50;;;;;;;;;;5091601;28;20032;-82
2023/10/07 18:19:45;;;;;;;0.50;0.50;;;;;;;;;;5073855;28;20032;-81
2023/10/07 18:22:11;;;;;;;0.60;0.60;;;;;;;;;;5084150;28;20025;-81
2023/10/07 18:24:37;;;;;;;0.50;0.50;;;;;;;;;;5086065;28;20049;-82
2023/10/07 18:27:04;;;;;;;0.50;0.50;;;;;;;;;;5085527;28;20084;-84
2023/10/07 18:29:34;;;;;;;0.45;0.45;;;;;;;;;;5086163;28;20048;-84
2023/10/07 18:32:00;;;;;;;0.60;0.60;;;;;;;;;;5088056;28;20033;-83
2023/10/07 18:34:29;;;;;;;0.50;0.50;;;;;;;;;;5088643;28;20070;-85
2023/10/07 18:36:56;;;;;;;0.50;0.50;;;;;;;;;;5087009;28;20021;-82
2023/10/07 18:39:25;;;;;;;0.57;0.57;;;;;;;;;;5085697;28;20032;-83
2023/10/07 18:41:51;;;;;;;0.60;0.60;;;;;;;;;;5084071;28;20067;-82
2023/10/07 18:44:17;;;;;;;0.60;0.60;;;;;;;;;;5084415;28;20025;-82
2023/10/07 18:46:46;;;;;;;0.60;0.60;;;;;;;;;;5085611;28;20029;-80
2023/10/07 18:49:13;;;;;;;0.50;0.50;;;;;;;;;;5084849;28;20020;-80
2023/10/07 18:51:39;;;;;;;0.60;0.60;;;;;;;;;;5082442;28;20468;-78
2023/10/07 18:54:06;;;;;;;0.95;0.90;;;;;;;;;;5082096;28;20078;-77
2023/10/07 18:56:32;;;;;;;0.60;0.60;;;;;;;;;;5084693;28;20036;-84
2023/10/07 18:59:11;;;;;;;0.55;0.55;;;;;;;;;;5089830;28;20040;-86
2023/10/07 19:01:39;;;;;;;0.60;0.60;;;;;;;;;;5048478;28;20087;-83
2023/10/07 19:04:06;;;;;;;0.88;0.85;;;;;;;;;;5046549;28;20036;-87